createdAt,value
2019-03-01T00:01:00.130Z,8.00
2019-03-01T00:03:28.708Z,8.00
2019-03-01T00:06:12.550Z,8.00
2019-03-01T00:09:17.593Z,7.90
2019-03-01T00:12:03.843Z,7.90
2019-03-01T00:14:56.054Z,7.90
2019-03-01T00:17:42.455Z,7.90
2019-03-01T00:20:26.000Z,7.90
2019-03-01T00:23:18.493Z,7.80
2019-03-01T00:26:04.831Z,7.80
2019-03-01T00:28:36.322Z,7.70
2019-03-01T00:31:39.573Z,7.70
2019-03-01T00:34:38.055Z,7.70
2019-03-01T00:37:24.656Z,7.70
2019-03-01T00:40:11.413Z,7.60
2019-03-01T00:42:45.537Z,7.60
2019-03-01T00:45:13.960Z,7.60
2019-03-01T00:47:42.380Z,7.60
2019-03-01T00:50:10.924Z,7.60
2019-03-01T00:52:39.424Z,7.60
2019-03-01T00:55:08.871Z,7.60
2019-03-01T00:57:37.292Z,7.50
2019-03-01T01:00:30.760Z,7.50
2019-03-01T01:02:59.180Z,7.50
2019-03-01T01:05:27.595Z,7.50
2019-03-01T01:07:56.004Z,7.50
2019-03-01T01:10:24.577Z,7.50
2019-03-01T01:12:52.997Z,7.50
2019-03-01T01:15:21.404Z,7.50
2019-03-01T01:17:49.832Z,7.50
2019-03-01T01:20:18.244Z,7.50
2019-03-01T01:22:46.698Z,7.40
2019-03-01T01:25:15.109Z,7.40
2019-03-01T01:27:43.549Z,7.40
2019-03-01T01:30:14.094Z,7.40
2019-03-01T01:32:42.504Z,7.40
2019-03-01T01:35:10.932Z,7.40
2019-03-01T01:37:39.401Z,7.40
2019-03-01T01:40:10.064Z,7.30
2019-03-01T01:42:38.481Z,7.40
2019-03-01T01:45:09.935Z,7.40
2019-03-01T01:47:38.701Z,7.30
2019-03-01T01:50:09.240Z,7.30
2019-03-01T01:52:37.668Z,7.30
2019-03-01T01:55:06.709Z,7.30
2019-03-01T01:57:35.132Z,7.40
2019-03-01T02:00:05.786Z,7.40
2019-03-01T02:02:34.215Z,7.40
2019-03-01T02:05:02.616Z,7.40
2019-03-01T02:07:31.103Z,7.40
2019-03-01T02:09:59.567Z,7.40
2019-03-01T02:12:27.984Z,7.40
2019-03-01T02:14:56.403Z,7.40
2019-03-01T02:17:24.826Z,7.40
2019-03-01T02:19:53.230Z,7.40
2019-03-01T02:22:21.645Z,7.40
2019-03-01T02:24:50.083Z,7.40
2019-03-01T02:27:23.919Z,7.30
2019-03-01T02:29:52.540Z,7.30
2019-03-01T02:32:29.945Z,7.30
2019-03-01T02:34:58.354Z,7.30
2019-03-01T02:37:26.781Z,7.30
2019-03-01T02:39:55.190Z,7.20
2019-03-01T02:42:23.596Z,7.30
2019-03-01T02:44:52.021Z,7.30
2019-03-01T02:47:20.430Z,7.20
2019-03-01T02:49:48.858Z,7.20
2019-03-01T02:52:17.272Z,7.20
2019-03-01T02:54:45.708Z,7.20
2019-03-01T02:57:14.160Z,7.20
2019-03-01T02:59:42.608Z,7.20
2019-03-01T03:02:11.014Z,7.20
2019-03-01T03:04:39.437Z,7.30
2019-03-01T03:07:27.494Z,7.30
2019-03-01T03:09:55.916Z,7.30
2019-03-01T03:12:24.317Z,7.30
2019-03-01T03:14:52.743Z,7.30
2019-03-01T03:17:21.149Z,7.20
2019-03-01T03:19:49.567Z,7.20
2019-03-01T03:22:17.977Z,7.20
2019-03-01T03:24:46.390Z,7.20
2019-03-01T03:27:14.819Z,7.20
2019-03-01T03:29:43.226Z,7.10
2019-03-01T03:32:11.681Z,7.10
2019-03-01T03:34:40.303Z,7.10
2019-03-01T03:37:08.881Z,7.10
2019-03-01T03:39:37.281Z,7.10
2019-03-01T03:42:05.987Z,7.10
2019-03-01T03:44:34.388Z,7.10
2019-03-01T03:47:02.832Z,7.00
2019-03-01T03:49:31.294Z,7.10
2019-03-01T03:51:59.714Z,7.10
2019-03-01T03:54:28.117Z,7.10
2019-03-01T03:56:56.630Z,7.00
2019-03-01T03:59:25.089Z,7.00
2019-03-01T04:01:53.501Z,7.00
2019-03-01T04:04:21.921Z,7.00
2019-03-01T04:06:50.338Z,7.00
2019-03-01T04:09:18.772Z,7.00
2019-03-01T04:11:47.189Z,7.00
2019-03-01T04:14:15.969Z,7.10
2019-03-01T04:16:44.378Z,7.10
2019-03-01T04:19:12.794Z,7.10
2019-03-01T04:21:41.243Z,7.20
2019-03-01T04:24:09.654Z,7.20
2019-03-01T04:26:38.065Z,7.10
2019-03-01T04:29:06.482Z,7.10
2019-03-01T04:31:34.903Z,7.10
2019-03-01T04:34:03.323Z,7.10
2019-03-01T04:36:31.741Z,7.00
2019-03-01T04:39:00.173Z,7.00
2019-03-01T04:41:28.582Z,7.00
2019-03-01T04:43:56.984Z,7.00
2019-03-01T04:46:25.409Z,7.00
2019-03-01T04:48:53.905Z,6.90
2019-03-01T04:51:22.320Z,6.90
2019-03-01T04:53:50.752Z,6.90
2019-03-01T04:56:19.174Z,6.80
2019-03-01T04:58:47.580Z,6.90
2019-03-01T05:01:15.999Z,6.90
2019-03-01T05:03:44.400Z,6.90
2019-03-01T05:06:12.896Z,6.90
2019-03-01T05:08:41.306Z,6.90
2019-03-01T05:11:09.730Z,6.80
2019-03-01T05:13:38.161Z,6.90
2019-03-01T05:16:06.580Z,6.90
2019-03-01T05:18:34.989Z,6.90
2019-03-01T05:21:03.414Z,7.00
2019-03-01T05:23:31.821Z,7.00
2019-03-01T05:26:00.248Z,7.00
2019-03-01T05:28:28.656Z,7.00
2019-03-01T05:30:57.069Z,7.00
2019-03-01T05:33:25.482Z,7.10
2019-03-01T05:35:53.899Z,7.10
2019-03-01T05:38:22.393Z,7.10
2019-03-01T05:40:50.803Z,7.10
2019-03-01T05:43:19.220Z,7.10
2019-03-01T05:45:47.629Z,7.10
2019-03-01T05:48:16.373Z,7.10
2019-03-01T05:50:44.785Z,7.00
2019-03-01T05:53:13.284Z,7.10
2019-03-01T05:55:41.689Z,7.10
2019-03-01T05:58:27.104Z,7.00
2019-03-01T06:00:58.365Z,7.00
2019-03-01T06:03:38.965Z,7.00
2019-03-01T06:06:07.745Z,7.00
2019-03-01T06:08:58.747Z,7.00
2019-03-01T06:11:34.463Z,6.90
2019-03-01T06:14:17.908Z,7.00
2019-03-01T06:17:00.951Z,7.00
2019-03-01T06:19:38.660Z,7.00
2019-03-01T06:22:18.818Z,7.00
2019-03-01T06:24:52.942Z,6.90
2019-03-01T06:27:54.657Z,6.90
2019-03-01T06:31:05.122Z,6.90
2019-03-01T06:34:00.814Z,6.90
2019-03-01T06:36:41.062Z,6.90
2019-03-01T06:39:40.030Z,6.90
2019-03-01T06:42:17.552Z,6.80
2019-03-01T06:44:55.050Z,6.90
2019-03-01T06:47:45.330Z,6.80
2019-03-01T06:50:18.060Z,6.80
2019-03-01T06:52:46.476Z,6.70
2019-03-01T06:55:30.244Z,6.70
2019-03-01T06:57:58.660Z,6.70
2019-03-01T07:00:28.050Z,6.70
2019-03-01T07:02:59.994Z,6.70
2019-03-01T07:05:28.395Z,6.70
2019-03-01T07:07:56.844Z,6.70
2019-03-01T07:10:25.276Z,6.60
2019-03-01T07:12:53.685Z,6.60
2019-03-01T07:15:22.105Z,6.60
2019-03-01T07:17:50.512Z,6.60
2019-03-01T07:20:18.937Z,6.60
2019-03-01T07:22:47.361Z,6.50
2019-03-01T07:25:15.786Z,6.50
2019-03-01T07:27:44.198Z,6.60
2019-03-01T07:30:12.613Z,6.50
2019-03-01T07:32:41.029Z,6.50
2019-03-01T07:35:10.372Z,6.50
2019-03-01T07:37:38.777Z,6.50
2019-03-01T07:40:11.541Z,6.50
2019-03-01T07:42:39.949Z,6.50
2019-03-01T07:45:10.818Z,6.50
2019-03-01T07:47:39.245Z,6.50
2019-03-01T07:50:14.005Z,6.50
2019-03-01T07:52:42.526Z,6.50
2019-03-01T07:55:11.779Z,6.50
2019-03-01T07:57:40.193Z,6.50
2019-03-01T08:00:27.949Z,6.60
2019-03-01T08:02:56.373Z,6.70
2019-03-01T08:05:24.966Z,6.70
2019-03-01T08:10:23.489Z,6.80
2019-03-01T08:12:52.089Z,6.80
2019-03-01T08:15:20.564Z,6.90
2019-03-01T08:17:48.973Z,6.90
2019-03-01T08:22:48.881Z,7.00
2019-03-01T08:25:22.890Z,7.00
2019-03-01T08:27:48.421Z,7.10
2019-03-01T08:30:18.259Z,7.10
2019-03-01T08:32:46.683Z,7.00
2019-03-01T08:35:16.531Z,7.20
2019-03-01T08:37:44.948Z,7.20
2019-03-01T08:40:15.979Z,7.20
2019-03-01T08:42:44.400Z,7.20
2019-03-01T08:45:20.623Z,7.30
2019-03-01T08:47:49.357Z,7.30
2019-03-01T08:55:19.185Z,7.70
2019-03-01T08:57:47.594Z,7.70
2019-03-01T09:00:28.135Z,7.80
2019-03-01T09:02:59.602Z,7.90
2019-03-01T09:05:28.029Z,7.90
2019-03-01T09:07:56.442Z,7.90
2019-03-01T09:10:24.870Z,7.80
2019-03-01T09:12:53.281Z,7.70
2019-03-01T09:15:21.767Z,7.60
2019-03-01T09:17:50.214Z,7.60
2019-03-01T09:20:19.099Z,7.60
2019-03-01T09:32:47.509Z,7.60
2019-03-01T09:35:19.693Z,7.70
2019-03-01T09:37:48.133Z,7.70
2019-03-01T09:40:16.554Z,7.70
2019-03-01T09:42:47.427Z,7.80
2019-03-01T09:55:10.338Z,8.20
2019-03-01T09:57:38.752Z,8.30
2019-03-01T10:00:28.166Z,8.30
2019-03-01T10:02:58.495Z,8.30
2019-03-01T10:05:27.114Z,8.30
2019-03-01T10:07:55.594Z,8.30
2019-03-01T10:10:45.186Z,8.20
2019-03-01T10:13:13.604Z,8.20
2019-03-01T10:15:42.027Z,8.10
2019-03-01T10:20:38.533Z,8.10
2019-03-01T10:23:06.941Z,8.10
2019-03-01T10:30:31.636Z,8.10
2019-03-01T10:33:00.128Z,8.10
2019-03-01T10:35:28.586Z,8.10
2019-03-01T10:37:57.066Z,8.10
2019-03-01T10:40:26.821Z,8.20
2019-03-01T10:42:55.242Z,8.20
2019-03-01T10:47:58.366Z,8.30
2019-03-01T10:50:26.883Z,8.30
2019-03-01T10:52:55.364Z,8.40
2019-03-01T10:57:51.940Z,8.30
2019-03-01T11:00:22.870Z,8.40
2019-03-01T11:05:19.589Z,8.20
2019-03-01T11:10:19.247Z,8.20
2019-03-01T11:12:47.706Z,8.30
2019-03-01T11:15:16.262Z,8.30
2019-03-01T11:17:44.677Z,8.20
2019-03-01T11:20:37.165Z,8.20
2019-03-01T11:25:33.669Z,8.20
2019-03-01T11:30:31.901Z,8.10
2019-03-01T11:33:00.328Z,8.20
2019-03-01T11:35:28.753Z,8.40
2019-03-01T11:37:57.170Z,8.40
2019-03-01T11:40:30.837Z,8.60
2019-03-01T11:42:59.365Z,8.70
2019-03-01T11:45:27.769Z,8.70
2019-03-01T11:47:56.168Z,8.80
2019-03-01T11:50:25.025Z,8.80
2019-03-01T11:52:53.522Z,8.90
2019-03-01T12:00:24.042Z,8.90
2019-03-01T12:02:52.705Z,8.80
2019-03-01T12:05:21.593Z,8.90
2019-03-01T12:07:50.589Z,8.80
2019-03-01T12:10:50.109Z,8.80
2019-03-01T12:13:18.529Z,8.70
2019-03-01T12:15:46.937Z,8.80
2019-03-01T12:18:15.394Z,8.90
2019-03-01T12:20:43.793Z,8.90
2019-03-01T12:23:12.294Z,8.90
2019-03-01T12:25:40.696Z,8.90
2019-03-01T12:28:09.126Z,8.90
2019-03-01T12:30:37.538Z,8.90
2019-03-01T12:33:06.009Z,8.90
2019-03-01T12:35:34.417Z,9.00
2019-03-01T12:38:02.903Z,8.90
2019-03-01T12:40:31.878Z,8.90
2019-03-01T12:43:00.310Z,8.90
2019-03-01T12:45:28.714Z,8.90
2019-03-01T12:47:57.132Z,8.90
2019-03-01T12:50:25.546Z,8.90
2019-03-01T12:52:54.315Z,8.80
2019-03-01T12:55:24.152Z,8.80
2019-03-01T12:57:52.568Z,8.80
2019-03-01T13:00:23.521Z,8.80
2019-03-01T13:02:52.198Z,8.80
2019-03-01T13:05:20.610Z,8.90
2019-03-01T13:07:49.025Z,9.00
2019-03-01T13:10:23.194Z,9.00
2019-03-01T13:12:51.622Z,8.90
2019-03-01T13:15:20.029Z,8.90
2019-03-01T13:17:49.879Z,8.90
2019-03-01T13:20:19.179Z,8.90
2019-03-01T13:22:47.607Z,9.00
2019-03-01T13:25:16.292Z,8.90
2019-03-01T13:27:44.709Z,8.80
2019-03-01T13:30:25.343Z,8.80
2019-03-01T13:32:55.047Z,8.80
2019-03-01T13:35:25.976Z,8.70
2019-03-01T13:37:55.430Z,8.50
2019-03-01T13:40:25.206Z,8.30
2019-03-01T13:42:53.894Z,8.30
2019-03-01T13:45:24.614Z,8.30
2019-03-01T13:47:53.086Z,8.10
2019-03-01T13:50:22.330Z,8.10
2019-03-01T13:53:10.084Z,8.10
2019-03-01T13:55:38.493Z,8.10
2019-03-01T13:58:06.915Z,8.10
2019-03-01T14:00:35.321Z,8.20
2019-03-01T14:03:03.739Z,8.20
2019-03-01T14:05:32.145Z,8.20
2019-03-01T14:08:08.617Z,8.40
2019-03-01T14:10:30.786Z,8.40
2019-03-01T14:12:59.182Z,8.60
2019-03-01T14:15:27.590Z,8.60
2019-03-01T14:18:00.375Z,8.70
2019-03-01T14:20:26.465Z,8.70
2019-03-01T14:22:54.891Z,8.80
2019-03-01T14:25:23.297Z,8.80
2019-03-01T14:27:52.983Z,8.90
2019-03-01T14:30:25.475Z,8.90
2019-03-01T14:32:56.882Z,9.00
2019-03-01T14:35:25.787Z,9.10
2019-03-01T14:37:55.231Z,9.10
2019-03-01T14:40:23.879Z,9.20
2019-03-01T14:42:52.353Z,9.20
2019-03-01T14:45:25.948Z,9.20
2019-03-01T14:47:54.926Z,9.20
2019-03-01T14:50:24.929Z,9.10
2019-03-01T14:52:58.124Z,9.10
2019-03-01T14:55:38.625Z,9.10
2019-03-01T14:58:13.193Z,9.10
2019-03-01T15:00:50.971Z,9.00
2019-03-01T15:03:32.349Z,9.10
2019-03-01T15:06:00.937Z,9.20
2019-03-01T15:08:29.422Z,9.30
2019-03-01T15:10:59.681Z,9.10
2019-03-01T15:13:31.333Z,9.20
2019-03-01T15:16:01.080Z,9.20
2019-03-01T15:18:29.027Z,9.20
2019-03-01T15:21:02.271Z,9.30
2019-03-01T15:23:29.019Z,9.30
2019-03-01T15:25:57.432Z,9.20
2019-03-01T15:28:25.841Z,9.00
2019-03-01T15:30:54.265Z,9.00
2019-03-01T15:33:22.682Z,9.00
2019-03-01T15:35:51.106Z,8.90
2019-03-01T15:38:19.533Z,8.90
2019-03-01T15:40:47.953Z,8.90
2019-03-01T15:43:16.365Z,8.90
2019-03-01T15:45:45.063Z,8.90
2019-03-01T15:48:13.488Z,9.00
2019-03-01T15:50:41.909Z,9.00
2019-03-01T15:53:10.681Z,9.10
2019-03-01T15:55:39.105Z,9.10
2019-03-01T15:58:07.522Z,9.00
2019-03-01T16:00:35.946Z,9.00
2019-03-01T16:03:04.930Z,9.00
2019-03-01T16:05:34.205Z,8.90
2019-03-01T16:08:05.525Z,8.90
2019-03-01T16:10:36.190Z,8.90
2019-03-01T16:13:03.838Z,8.90
2019-03-01T16:15:34.984Z,8.80
2019-03-01T16:18:02.458Z,8.80
2019-03-01T16:20:31.053Z,8.70
2019-03-01T16:22:59.514Z,8.60
2019-03-01T16:25:28.340Z,8.50
2019-03-01T16:27:56.773Z,8.50
2019-03-01T16:30:25.179Z,8.40
2019-03-01T16:32:53.599Z,8.30
2019-03-01T16:35:22.081Z,8.20
2019-03-01T16:37:52.234Z,8.10
2019-03-01T16:40:20.690Z,8.00
2019-03-01T16:42:52.951Z,7.90
2019-03-01T16:45:21.207Z,7.90
2019-03-01T16:47:49.466Z,7.80
2019-03-01T16:50:19.245Z,7.70
2019-03-01T16:52:47.807Z,7.60
2019-03-01T16:55:24.496Z,7.50
2019-03-01T16:57:52.265Z,7.40
2019-03-01T17:00:25.156Z,7.30
2019-03-01T17:02:59.563Z,7.20
2019-03-01T17:05:28.000Z,7.20
2019-03-01T17:07:59.811Z,7.10
2019-03-01T17:10:29.851Z,7.10
2019-03-01T17:12:56.731Z,7.10
2019-03-01T17:15:25.919Z,7.10
2019-03-01T17:17:54.351Z,7.00
2019-03-01T17:20:23.122Z,7.00
2019-03-01T17:22:51.729Z,7.00
2019-03-01T17:25:23.376Z,7.00
2019-03-01T17:28:10.694Z,7.00
2019-03-01T17:30:39.109Z,7.00
2019-03-01T17:33:09.697Z,7.00
2019-03-01T17:35:40.642Z,7.00
2019-03-01T17:38:08.289Z,7.00
2019-03-01T17:40:36.925Z,7.00
2019-03-01T17:43:05.345Z,6.80
2019-03-01T17:45:33.757Z,6.80
2019-03-01T17:48:02.184Z,6.80
2019-03-01T17:50:30.601Z,6.80
2019-03-01T17:52:59.018Z,6.80
2019-03-01T17:55:28.479Z,6.80
2019-03-01T17:57:56.908Z,6.80
2019-03-01T18:00:32.566Z,6.80
2019-03-01T18:03:00.997Z,6.80
2019-03-01T18:05:29.539Z,6.80
2019-03-01T18:07:59.863Z,6.80
2019-03-01T18:10:28.821Z,6.80
2019-03-01T18:12:58.664Z,6.80
2019-03-01T18:15:27.086Z,6.80
2019-03-01T18:17:55.812Z,6.80
2019-03-01T18:20:24.305Z,6.80
2019-03-01T18:22:52.781Z,6.80
2019-03-01T18:25:22.770Z,6.80
2019-03-01T18:27:52.925Z,6.90
2019-03-01T18:30:27.105Z,6.80
2019-03-01T18:32:55.544Z,6.90
2019-03-01T18:35:23.965Z,6.90
2019-03-01T18:37:54.885Z,6.90
2019-03-01T18:40:22.873Z,6.90
2019-03-01T18:42:51.281Z,6.90
2019-03-01T18:45:23.697Z,6.90
2019-03-01T18:47:52.130Z,6.90
2019-03-01T18:50:37.231Z,6.90
2019-03-01T18:53:05.722Z,6.90
2019-03-01T18:55:34.207Z,6.90
2019-03-01T18:58:02.702Z,6.90
2019-03-01T19:00:42.700Z,6.90
2019-03-01T19:03:11.126Z,6.90
2019-03-01T19:05:41.174Z,6.80
2019-03-01T19:08:09.796Z,6.80
2019-03-01T19:10:38.201Z,6.80
2019-03-01T19:13:06.633Z,6.70
2019-03-01T19:15:35.120Z,6.70
2019-03-01T19:18:04.929Z,6.70
2019-03-01T19:20:57.105Z,6.70
2019-03-01T19:30:52.360Z,6.60
2019-03-01T19:33:20.784Z,6.60
2019-03-01T19:35:49.203Z,6.60
2019-03-01T19:38:17.633Z,6.50
2019-03-01T19:40:47.110Z,6.50
2019-03-01T19:43:16.234Z,6.50
2019-03-01T19:45:44.696Z,6.50
2019-03-01T19:50:41.204Z,6.40
2019-03-01T19:55:37.731Z,6.40
2019-03-01T20:00:39.118Z,6.40
2019-03-01T20:03:06.698Z,6.30
2019-03-01T20:05:39.648Z,6.30
2019-03-01T20:08:08.080Z,6.30
2019-03-01T20:10:36.987Z,6.30
2019-03-01T20:13:05.639Z,6.30
2019-03-01T20:15:34.135Z,6.30
2019-03-01T20:20:33.331Z,6.30
2019-03-01T20:23:00.792Z,6.30
2019-03-01T20:25:29.216Z,6.30
2019-03-01T20:27:57.641Z,6.30
2019-03-01T20:30:30.172Z,6.20
2019-03-01T20:32:58.530Z,6.20
2019-03-01T20:35:26.982Z,6.20
2019-03-01T20:37:55.409Z,6.20
2019-03-01T20:40:26.711Z,6.20
2019-03-01T20:42:55.856Z,6.20
2019-03-01T20:45:29.882Z,6.20
2019-03-01T20:50:25.197Z,6.20
2019-03-01T21:00:26.131Z,6.20
2019-03-01T21:02:55.121Z,6.30
2019-03-01T21:05:24.876Z,6.30
2019-03-01T21:07:54.866Z,6.30
2019-03-01T21:10:29.874Z,6.30
2019-03-01T21:12:58.307Z,6.30
2019-03-01T21:15:26.773Z,6.30
2019-03-01T21:20:25.028Z,6.30
2019-03-01T21:22:53.437Z,6.30
2019-03-01T21:25:23.869Z,6.30
2019-03-01T21:27:52.277Z,6.30
2019-03-01T21:30:34.065Z,6.30
2019-03-01T21:33:02.481Z,6.30
2019-03-01T21:35:30.917Z,6.30
2019-03-01T21:37:59.343Z,6.30
2019-03-01T21:40:27.780Z,6.30
2019-03-01T21:42:59.716Z,6.30
2019-03-01T21:45:26.334Z,6.30
2019-03-01T21:47:54.750Z,6.20
2019-03-01T21:50:23.241Z,6.30
2019-03-01T21:55:28.192Z,6.20
2019-03-01T21:57:54.790Z,6.20
2019-03-01T22:00:29.978Z,6.30
2019-03-01T22:02:58.203Z,6.30
2019-03-01T22:05:26.636Z,6.30
2019-03-01T22:07:55.051Z,6.20
2019-03-01T22:10:23.478Z,6.20
2019-03-01T22:12:51.897Z,6.20
2019-03-01T22:15:27.769Z,6.20
2019-03-01T22:17:56.542Z,6.20
2019-03-01T22:20:25.454Z,6.20
2019-03-01T22:25:22.277Z,6.30
2019-03-01T22:27:50.692Z,6.20
2019-03-01T22:30:32.910Z,6.20
2019-03-01T22:33:01.324Z,6.20
2019-03-01T22:35:29.745Z,6.20
2019-03-01T22:38:00.902Z,6.20
2019-03-01T22:40:29.371Z,6.30
2019-03-01T22:42:58.080Z,6.20
2019-03-01T22:45:26.503Z,6.20
2019-03-01T22:47:54.913Z,6.30
2019-03-01T22:50:23.334Z,6.30
2019-03-01T22:52:52.057Z,6.30
2019-03-01T22:55:21.672Z,6.30
2019-03-01T23:00:47.655Z,6.30
2019-03-01T23:03:18.810Z,6.20
2019-03-01T23:05:46.961Z,6.20
2019-03-01T23:08:15.453Z,6.20
2019-03-01T23:10:43.866Z,6.20
2019-03-01T23:13:12.280Z,6.20
2019-03-01T23:15:43.352Z,6.20
2019-03-01T23:18:10.841Z,6.20
2019-03-01T23:20:39.274Z,6.20
2019-03-01T23:25:35.789Z,6.20
2019-03-01T23:30:34.709Z,6.20
2019-03-01T23:33:03.133Z,6.30
2019-03-01T23:35:31.573Z,6.30
2019-03-01T23:37:59.995Z,6.20
2019-03-01T23:40:28.734Z,6.20
2019-03-01T23:42:57.981Z,6.20
2019-03-01T23:45:26.403Z,6.20
2019-03-01T23:47:54.816Z,6.10
2019-03-01T23:50:23.257Z,6.10
2019-03-01T23:55:21.551Z,6.10
